sensor_id;sensor_type;location;lat;lon;timestamp;P1;durP1;ratioP1;P2;durP2;ratioP2
25982;SDS011;13773;48.868;10.730;2022-10-16T00:01:36;5.63;;;2.93;;
25982;SDS011;13773;48.868;10.730;2022-10-16T00:04:02;2.97;;;2.60;;
25982;SDS011;13773;48.868;10.730;2022-10-16T00:06:28;4.03;;;2.60;;
25982;SDS011;13773;48.868;10.730;2022-10-16T00:08:54;2.77;;;2.47;;
25982;SDS011;13773;48.868;10.730;2022-10-16T00:11:25;3.13;;;2.57;;
25982;SDS011;13773;48.868;10.730;2022-10-16T00:13:55;4.00;;;2.60;;
25982;SDS011;13773;48.868;10.730;2022-10-16T00:16:22;4.47;;;2.83;;
25982;SDS011;13773;48.868;10.730;2022-10-16T00:18:48;4.70;;;3.10;;
25982;SDS011;13773;48.868;10.730;2022-10-16T00:21:15;2.80;;;2.43;;
25982;SDS011;13773;48.868;10.730;2022-10-16T00:23:43;3.03;;;2.73;;
25982;SDS011;13773;48.868;10.730;2022-10-16T00:26:10;4.63;;;2.73;;
25982;SDS011;13773;48.868;10.730;2022-10-16T00:28:38;4.73;;;2.90;;
25982;SDS011;13773;48.868;10.730;2022-10-16T00:31:04;4.77;;;3.00;;
25982;SDS011;13773;48.868;10.730;2022-10-16T00:33:32;4.77;;;2.30;;
25982;SDS011;13773;48.868;10.730;2022-10-16T00:35:58;2.90;;;2.70;;
25982;SDS011;13773;48.868;10.730;2022-10-16T00:38:24;5.50;;;2.60;;
25982;SDS011;13773;48.868;10.730;2022-10-16T00:40:50;3.33;;;2.50;;
25982;SDS011;13773;48.868;10.730;2022-10-16T00:46:13;5.20;;;2.63;;
25982;SDS011;13773;48.868;10.730;2022-10-16T00:48:40;3.20;;;2.10;;
25982;SDS011;13773;48.868;10.730;2022-10-16T00:51:08;5.60;;;2.20;;
25982;SDS011;13773;48.868;10.730;2022-10-16T00:53:33;4.40;;;2.33;;
25982;SDS011;13773;48.868;10.730;2022-10-16T00:56:00;3.37;;;2.57;;
25982;SDS011;13773;48.868;10.730;2022-10-16T00:58:26;4.97;;;2.67;;
25982;SDS011;13773;48.868;10.730;2022-10-16T01:00:52;5.80;;;2.73;;
25982;SDS011;13773;48.868;10.730;2022-10-16T01:03:25;4.33;;;2.80;;
25982;SDS011;13773;48.868;10.730;2022-10-16T01:08:47;3.93;;;2.43;;
25982;SDS011;13773;48.868;10.730;2022-10-16T01:11:35;4.80;;;2.60;;
25982;SDS011;13773;48.868;10.730;2022-10-16T01:14:21;6.30;;;2.70;;
25982;SDS011;13773;48.868;10.730;2022-10-16T01:16:55;7.03;;;2.60;;
25982;SDS011;13773;48.868;10.730;2022-10-16T01:21:59;3.07;;;2.77;;
25982;SDS011;13773;48.868;10.730;2022-10-16T01:24:38;5.07;;;2.60;;
25982;SDS011;13773;48.868;10.730;2022-10-16T01:27:25;3.70;;;2.67;;
25982;SDS011;13773;48.868;10.730;2022-10-16T01:35:09;6.67;;;2.90;;
25982;SDS011;13773;48.868;10.730;2022-10-16T01:40:36;3.53;;;2.83;;
25982;SDS011;13773;48.868;10.730;2022-10-16T01:43:07;3.67;;;2.50;;
25982;SDS011;13773;48.868;10.730;2022-10-16T01:45:37;3.60;;;2.30;;
25982;SDS011;13773;48.868;10.730;2022-10-16T01:48:04;4.17;;;2.80;;
25982;SDS011;13773;48.868;10.730;2022-10-16T01:50:33;3.33;;;2.57;;
25982;SDS011;13773;48.868;10.730;2022-10-16T01:53:02;5.37;;;2.87;;
25982;SDS011;13773;48.868;10.730;2022-10-16T01:55:35;3.03;;;2.30;;
25982;SDS011;13773;48.868;10.730;2022-10-16T01:58:04;5.87;;;2.93;;
25982;SDS011;13773;48.868;10.730;2022-10-16T02:00:32;3.50;;;2.87;;
25982;SDS011;13773;48.868;10.730;2022-10-16T02:02:58;3.13;;;2.60;;
25982;SDS011;13773;48.868;10.730;2022-10-16T02:05:32;7.63;;;2.97;;
25982;SDS011;13773;48.868;10.730;2022-10-16T02:08:04;7.57;;;2.50;;
25982;SDS011;13773;48.868;10.730;2022-10-16T02:10:30;5.17;;;3.00;;
25982;SDS011;13773;48.868;10.730;2022-10-16T02:13:00;3.57;;;2.63;;
25982;SDS011;13773;48.868;10.730;2022-10-16T02:15:30;5.90;;;3.07;;
25982;SDS011;13773;48.868;10.730;2022-10-16T02:17:56;6.43;;;3.97;;
25982;SDS011;13773;48.868;10.730;2022-10-16T02:20:24;4.73;;;2.80;;
25982;SDS011;13773;48.868;10.730;2022-10-16T02:22:52;4.27;;;2.97;;
25982;SDS011;13773;48.868;10.730;2022-10-16T02:25:25;2.90;;;2.60;;
25982;SDS011;13773;48.868;10.730;2022-10-16T02:30:42;6.43;;;3.00;;
25982;SDS011;13773;48.868;10.730;2022-10-16T02:33:15;3.80;;;3.43;;
25982;SDS011;13773;48.868;10.730;2022-10-16T02:35:43;6.23;;;3.30;;
25982;SDS011;13773;48.868;10.730;2022-10-16T02:38:11;4.40;;;3.00;;
25982;SDS011;13773;48.868;10.730;2022-10-16T02:40:39;4.40;;;3.73;;
25982;SDS011;13773;48.868;10.730;2022-10-16T02:43:05;5.33;;;4.30;;
25982;SDS011;13773;48.868;10.730;2022-10-16T02:45:32;7.97;;;3.43;;
25982;SDS011;13773;48.868;10.730;2022-10-16T02:47:58;5.03;;;3.73;;
25982;SDS011;13773;48.868;10.730;2022-10-16T02:50:23;8.60;;;4.57;;
25982;SDS011;13773;48.868;10.730;2022-10-16T02:52:50;6.00;;;4.50;;
25982;SDS011;13773;48.868;10.730;2022-10-16T02:55:16;4.60;;;3.80;;
25982;SDS011;13773;48.868;10.730;2022-10-16T02:57:41;4.50;;;3.57;;
25982;SDS011;13773;48.868;10.730;2022-10-16T03:00:08;6.73;;;4.30;;
25982;SDS011;13773;48.868;10.730;2022-10-16T03:02:36;4.87;;;3.80;;
25982;SDS011;13773;48.868;10.730;2022-10-16T03:05:02;6.97;;;4.20;;
25982;SDS011;13773;48.868;10.730;2022-10-16T03:07:28;4.57;;;4.17;;
25982;SDS011;13773;48.868;10.730;2022-10-16T03:09:53;9.07;;;4.37;;
25982;SDS011;13773;48.868;10.730;2022-10-16T03:12:20;7.13;;;4.07;;
25982;SDS011;13773;48.868;10.730;2022-10-16T03:14:46;7.70;;;3.90;;
25982;SDS011;13773;48.868;10.730;2022-10-16T03:17:12;5.07;;;4.00;;
25982;SDS011;13773;48.868;10.730;2022-10-16T03:19:38;7.07;;;4.20;;
25982;SDS011;13773;48.868;10.730;2022-10-16T03:22:04;9.00;;;4.30;;
25982;SDS011;13773;48.868;10.730;2022-10-16T03:24:30;5.30;;;3.83;;
25982;SDS011;13773;48.868;10.730;2022-10-16T03:26:56;6.37;;;3.93;;
25982;SDS011;13773;48.868;10.730;2022-10-16T03:29:22;4.93;;;3.87;;
25982;SDS011;13773;48.868;10.730;2022-10-16T03:31:48;9.17;;;3.57;;
25982;SDS011;13773;48.868;10.730;2022-10-16T03:34:14;4.20;;;3.80;;
25982;SDS011;13773;48.868;10.730;2022-10-16T03:36:40;4.37;;;3.60;;
25982;SDS011;13773;48.868;10.730;2022-10-16T03:39:06;3.73;;;3.43;;
25982;SDS011;13773;48.868;10.730;2022-10-16T03:41:32;6.03;;;3.93;;
25982;SDS011;13773;48.868;10.730;2022-10-16T03:43:57;5.83;;;3.70;;
25982;SDS011;13773;48.868;10.730;2022-10-16T03:46:23;5.43;;;3.53;;
25982;SDS011;13773;48.868;10.730;2022-10-16T03:48:49;4.13;;;3.60;;
25982;SDS011;13773;48.868;10.730;2022-10-16T03:51:14;4.23;;;3.10;;
25982;SDS011;13773;48.868;10.730;2022-10-16T03:53:40;3.40;;;3.00;;
25982;SDS011;13773;48.868;10.730;2022-10-16T03:56:06;4.23;;;3.27;;
25982;SDS011;13773;48.868;10.730;2022-10-16T03:58:32;5.57;;;3.10;;
25982;SDS011;13773;48.868;10.730;2022-10-16T04:00:58;7.07;;;3.27;;
25982;SDS011;13773;48.868;10.730;2022-10-16T04:03:23;2.83;;;2.63;;
25982;SDS011;13773;48.868;10.730;2022-10-16T04:05:49;3.37;;;2.97;;
25982;SDS011;13773;48.868;10.730;2022-10-16T04:08:15;6.80;;;3.23;;
25982;SDS011;13773;48.868;10.730;2022-10-16T04:10:44;4.07;;;2.80;;
25982;SDS011;13773;48.868;10.730;2022-10-16T04:13:10;3.27;;;2.33;;
25982;SDS011;13773;48.868;10.730;2022-10-16T04:15:36;6.20;;;2.87;;
25982;SDS011;13773;48.868;10.730;2022-10-16T04:18:02;6.20;;;2.90;;
25982;SDS011;13773;48.868;10.730;2022-10-16T04:20:28;7.20;;;2.80;;
25982;SDS011;13773;48.868;10.730;2022-10-16T04:22:55;6.90;;;2.80;;
25982;SDS011;13773;48.868;10.730;2022-10-16T04:25:21;5.47;;;2.77;;
25982;SDS011;13773;48.868;10.730;2022-10-16T04:27:46;4.83;;;2.50;;
25982;SDS011;13773;48.868;10.730;2022-10-16T04:30:12;6.00;;;2.90;;
25982;SDS011;13773;48.868;10.730;2022-10-16T04:32:38;6.70;;;2.77;;
25982;SDS011;13773;48.868;10.730;2022-10-16T04:35:04;4.70;;;2.60;;
25982;SDS011;13773;48.868;10.730;2022-10-16T04:37:32;4.57;;;2.60;;
25982;SDS011;13773;48.868;10.730;2022-10-16T04:39:58;4.23;;;3.00;;
25982;SDS011;13773;48.868;10.730;2022-10-16T04:42:23;3.97;;;2.80;;
25982;SDS011;13773;48.868;10.730;2022-10-16T04:44:49;4.23;;;2.80;;
25982;SDS011;13773;48.868;10.730;2022-10-16T04:47:15;3.20;;;2.90;;
25982;SDS011;13773;48.868;10.730;2022-10-16T04:49:40;3.90;;;2.73;;
25982;SDS011;13773;48.868;10.730;2022-10-16T04:52:06;2.83;;;2.57;;
25982;SDS011;13773;48.868;10.730;2022-10-16T04:54:34;3.83;;;3.17;;
25982;SDS011;13773;48.868;10.730;2022-10-16T04:56:59;3.70;;;3.23;;
25982;SDS011;13773;48.868;10.730;2022-10-16T04:59:25;4.80;;;2.93;;
25982;SDS011;13773;48.868;10.730;2022-10-16T05:01:51;7.17;;;2.83;;
25982;SDS011;13773;48.868;10.730;2022-10-16T05:04:16;4.97;;;2.67;;
25982;SDS011;13773;48.868;10.730;2022-10-16T05:06:42;3.00;;;2.70;;
25982;SDS011;13773;48.868;10.730;2022-10-16T05:09:08;3.30;;;2.53;;
25982;SDS011;13773;48.868;10.730;2022-10-16T05:11:35;3.50;;;2.80;;
25982;SDS011;13773;48.868;10.730;2022-10-16T05:14:01;3.13;;;2.87;;
25982;SDS011;13773;48.868;10.730;2022-10-16T05:16:27;4.53;;;3.00;;
25982;SDS011;13773;48.868;10.730;2022-10-16T05:18:53;5.43;;;3.20;;
25982;SDS011;13773;48.868;10.730;2022-10-16T05:21:19;7.53;;;3.60;;
25982;SDS011;13773;48.868;10.730;2022-10-16T05:23:45;4.50;;;3.27;;
25982;SDS011;13773;48.868;10.730;2022-10-16T05:26:11;5.67;;;3.40;;
25982;SDS011;13773;48.868;10.730;2022-10-16T05:28:37;4.63;;;3.23;;
25982;SDS011;13773;48.868;10.730;2022-10-16T05:31:06;6.33;;;3.00;;
25982;SDS011;13773;48.868;10.730;2022-10-16T05:33:32;4.60;;;3.57;;
25982;SDS011;13773;48.868;10.730;2022-10-16T05:36:02;5.63;;;3.40;;
25982;SDS011;13773;48.868;10.730;2022-10-16T05:38:29;6.77;;;3.83;;
25982;SDS011;13773;48.868;10.730;2022-10-16T05:40:55;3.37;;;3.07;;
25982;SDS011;13773;48.868;10.730;2022-10-16T05:43:21;4.23;;;3.47;;
25982;SDS011;13773;48.868;10.730;2022-10-16T05:45:57;3.77;;;3.27;;
25982;SDS011;13773;48.868;10.730;2022-10-16T05:48:25;9.57;;;3.73;;
25982;SDS011;13773;48.868;10.730;2022-10-16T05:51:01;5.57;;;3.20;;
25982;SDS011;13773;48.868;10.730;2022-10-16T05:53:29;7.13;;;3.70;;
25982;SDS011;13773;48.868;10.730;2022-10-16T05:55:56;3.57;;;3.27;;
25982;SDS011;13773;48.868;10.730;2022-10-16T05:58:23;5.97;;;3.40;;
25982;SDS011;13773;48.868;10.730;2022-10-16T06:00:53;4.93;;;3.63;;
25982;SDS011;13773;48.868;10.730;2022-10-16T06:03:24;4.30;;;3.10;;
25982;SDS011;13773;48.868;10.730;2022-10-16T06:05:50;6.40;;;3.03;;
25982;SDS011;13773;48.868;10.730;2022-10-16T06:08:16;6.00;;;2.70;;
25982;SDS011;13773;48.868;10.730;2022-10-16T06:10:43;7.87;;;3.50;;
25982;SDS011;13773;48.868;10.730;2022-10-16T06:13:10;8.07;;;3.40;;
25982;SDS011;13773;48.868;10.730;2022-10-16T06:15:37;9.07;;;3.20;;
25982;SDS011;13773;48.868;10.730;2022-10-16T06:18:04;7.63;;;3.10;;
25982;SDS011;13773;48.868;10.730;2022-10-16T06:20:30;7.77;;;3.50;;
25982;SDS011;13773;48.868;10.730;2022-10-16T06:22:56;5.13;;;3.40;;
25982;SDS011;13773;48.868;10.730;2022-10-16T06:25:23;8.53;;;3.53;;
25982;SDS011;13773;48.868;10.730;2022-10-16T06:27:49;3.60;;;3.30;;
25982;SDS011;13773;48.868;10.730;2022-10-16T06:30:14;3.93;;;3.00;;
25982;SDS011;13773;48.868;10.730;2022-10-16T06:32:42;3.50;;;2.83;;
25982;SDS011;13773;48.868;10.730;2022-10-16T06:35:08;5.63;;;3.13;;
25982;SDS011;13773;48.868;10.730;2022-10-16T06:37:33;3.60;;;2.90;;
25982;SDS011;13773;48.868;10.730;2022-10-16T06:39:59;3.10;;;2.80;;
25982;SDS011;13773;48.868;10.730;2022-10-16T06:42:25;4.50;;;2.90;;
25982;SDS011;13773;48.868;10.730;2022-10-16T06:44:51;6.47;;;2.80;;
25982;SDS011;13773;48.868;10.730;2022-10-16T06:47:17;8.60;;;2.90;;
25982;SDS011;13773;48.868;10.730;2022-10-16T06:49:43;2.60;;;2.40;;
25982;SDS011;13773;48.868;10.730;2022-10-16T06:52:09;5.33;;;2.50;;
25982;SDS011;13773;48.868;10.730;2022-10-16T06:54:35;4.37;;;2.33;;
25982;SDS011;13773;48.868;10.730;2022-10-16T06:57:00;6.60;;;3.00;;
25982;SDS011;13773;48.868;10.730;2022-10-16T06:59:26;4.07;;;3.67;;
25982;SDS011;13773;48.868;10.730;2022-10-16T07:01:52;3.33;;;3.03;;
25982;SDS011;13773;48.868;10.730;2022-10-16T07:04:18;3.50;;;2.50;;
25982;SDS011;13773;48.868;10.730;2022-10-16T07:06:44;3.10;;;2.57;;
25982;SDS011;13773;48.868;10.730;2022-10-16T07:09:10;3.63;;;2.50;;
25982;SDS011;13773;48.868;10.730;2022-10-16T07:11:36;4.10;;;2.40;;
25982;SDS011;13773;48.868;10.730;2022-10-16T07:14:03;4.93;;;2.40;;
25982;SDS011;13773;48.868;10.730;2022-10-16T07:16:31;5.00;;;2.00;;
25982;SDS011;13773;48.868;10.730;2022-10-16T07:18:59;2.70;;;2.10;;
25982;SDS011;13773;48.868;10.730;2022-10-16T07:21:26;2.33;;;2.10;;
25982;SDS011;13773;48.868;10.730;2022-10-16T07:23:57;3.73;;;2.20;;
25982;SDS011;13773;48.868;10.730;2022-10-16T07:26:24;3.00;;;1.93;;
25982;SDS011;13773;48.868;10.730;2022-10-16T07:28:52;3.53;;;1.90;;
25982;SDS011;13773;48.868;10.730;2022-10-16T07:31:18;3.87;;;2.20;;
25982;SDS011;13773;48.868;10.730;2022-10-16T07:33:45;4.93;;;2.40;;
25982;SDS011;13773;48.868;10.730;2022-10-16T07:36:13;6.30;;;2.67;;
25982;SDS011;13773;48.868;10.730;2022-10-16T07:38:40;4.03;;;2.03;;
25982;SDS011;13773;48.868;10.730;2022-10-16T07:41:07;4.30;;;2.20;;
25982;SDS011;13773;48.868;10.730;2022-10-16T07:43:35;4.87;;;2.07;;
25982;SDS011;13773;48.868;10.730;2022-10-16T07:46:01;3.93;;;1.93;;
25982;SDS011;13773;48.868;10.730;2022-10-16T07:48:29;6.87;;;2.20;;
25982;SDS011;13773;48.868;10.730;2022-10-16T07:50:57;4.53;;;1.80;;
25982;SDS011;13773;48.868;10.730;2022-10-16T07:53:26;3.20;;;2.07;;
25982;SDS011;13773;48.868;10.730;2022-10-16T07:55:54;4.20;;;2.37;;
25982;SDS011;13773;48.868;10.730;2022-10-16T07:58:23;2.87;;;1.90;;
25982;SDS011;13773;48.868;10.730;2022-10-16T08:00:49;6.27;;;2.40;;
25982;SDS011;13773;48.868;10.730;2022-10-16T08:03:14;3.20;;;1.90;;
25982;SDS011;13773;48.868;10.730;2022-10-16T08:05:40;3.73;;;2.07;;
25982;SDS011;13773;48.868;10.730;2022-10-16T08:08:06;4.93;;;2.27;;
25982;SDS011;13773;48.868;10.730;2022-10-16T08:10:31;3.10;;;2.40;;
25982;SDS011;13773;48.868;10.730;2022-10-16T08:12:57;3.37;;;2.00;;
25982;SDS011;13773;48.868;10.730;2022-10-16T08:15:23;4.57;;;1.83;;
25982;SDS011;13773;48.868;10.730;2022-10-16T08:18:23;5.50;;;3.03;;
25982;SDS011;13773;48.868;10.730;2022-10-16T08:20:42;6.70;;;2.20;;
25982;SDS011;13773;48.868;10.730;2022-10-16T08:23:09;3.90;;;1.90;;
25982;SDS011;13773;48.868;10.730;2022-10-16T08:25:37;7.43;;;2.23;;
25982;SDS011;13773;48.868;10.730;2022-10-16T08:28:06;3.87;;;2.17;;
25982;SDS011;13773;48.868;10.730;2022-10-16T08:30:34;2.57;;;1.53;;
25982;SDS011;13773;48.868;10.730;2022-10-16T08:33:00;2.80;;;2.10;;
25982;SDS011;13773;48.868;10.730;2022-10-16T08:35:26;3.67;;;1.80;;
25982;SDS011;13773;48.868;10.730;2022-10-16T08:37:52;5.30;;;2.17;;
25982;SDS011;13773;48.868;10.730;2022-10-16T08:48:49;5.30;;;2.00;;
25982;SDS011;13773;48.868;10.730;2022-10-16T08:53:51;3.93;;;1.83;;
25982;SDS011;13773;48.868;10.730;2022-10-16T08:56:20;4.83;;;1.80;;
25982;SDS011;13773;48.868;10.730;2022-10-16T08:58:46;4.73;;;1.67;;
25982;SDS011;13773;48.868;10.730;2022-10-16T09:01:14;1.87;;;1.40;;
25982;SDS011;13773;48.868;10.730;2022-10-16T09:09:31;4.60;;;2.07;;
25982;SDS011;13773;48.868;10.730;2022-10-16T09:12:19;12.60;;;2.03;;
25982;SDS011;13773;48.868;10.730;2022-10-16T09:20:36;3.97;;;1.43;;
25982;SDS011;13773;48.868;10.730;2022-10-16T09:23:17;2.87;;;1.60;;
25982;SDS011;13773;48.868;10.730;2022-10-16T09:25:44;4.37;;;1.67;;
25982;SDS011;13773;48.868;10.730;2022-10-16T09:28:12;2.87;;;1.63;;
25982;SDS011;13773;48.868;10.730;2022-10-16T09:30:39;3.77;;;1.77;;
25982;SDS011;13773;48.868;10.730;2022-10-16T09:33:05;3.70;;;1.47;;
25982;SDS011;13773;48.868;10.730;2022-10-16T09:38:30;1.50;;;1.40;;
25982;SDS011;13773;48.868;10.730;2022-10-16T09:40:58;2.53;;;1.73;;
25982;SDS011;13773;48.868;10.730;2022-10-16T09:43:27;3.03;;;1.60;;
25982;SDS011;13773;48.868;10.730;2022-10-16T09:46:09;2.70;;;1.70;;
25982;SDS011;13773;48.868;10.730;2022-10-16T09:48:50;3.83;;;1.80;;
25982;SDS011;13773;48.868;10.730;2022-10-16T09:51:21;3.63;;;1.70;;
25982;SDS011;13773;48.868;10.730;2022-10-16T09:53:56;4.67;;;1.73;;
25982;SDS011;13773;48.868;10.730;2022-10-16T09:56:30;3.30;;;1.50;;
25982;SDS011;13773;48.868;10.730;2022-10-16T09:59:16;3.13;;;1.40;;
25982;SDS011;13773;48.868;10.730;2022-10-16T10:01:51;1.60;;;1.40;;
25982;SDS011;13773;48.868;10.730;2022-10-16T10:04:20;6.13;;;1.80;;
25982;SDS011;13773;48.868;10.730;2022-10-16T10:09:17;2.30;;;2.10;;
25982;SDS011;13773;48.868;10.730;2022-10-16T10:17:19;2.93;;;1.60;;
25982;SDS011;13773;48.868;10.730;2022-10-16T10:22:29;3.17;;;1.87;;
25982;SDS011;13773;48.868;10.730;2022-10-16T10:30:15;1.97;;;1.70;;
25982;SDS011;13773;48.868;10.730;2022-10-16T10:33:20;2.60;;;1.90;;
25982;SDS011;13773;48.868;10.730;2022-10-16T10:46:45;3.27;;;1.60;;
25982;SDS011;13773;48.868;10.730;2022-10-16T11:03:35;2.17;;;1.23;;
25982;SDS011;13773;48.868;10.730;2022-10-16T11:11:41;2.93;;;1.60;;
25982;SDS011;13773;48.868;10.730;2022-10-16T11:17:01;2.37;;;1.43;;
25982;SDS011;13773;48.868;10.730;2022-10-16T11:19:50;2.50;;;1.87;;
25982;SDS011;13773;48.868;10.730;2022-10-16T11:22:34;9.27;;;1.90;;
25982;SDS011;13773;48.868;10.730;2022-10-16T11:25:18;6.77;;;1.90;;
25982;SDS011;13773;48.868;10.730;2022-10-16T11:28:31;2.97;;;1.70;;
25982;SDS011;13773;48.868;10.730;2022-10-16T11:30:56;2.20;;;1.87;;
25982;SDS011;13773;48.868;10.730;2022-10-16T11:36:19;2.13;;;1.70;;
25982;SDS011;13773;48.868;10.730;2022-10-16T11:41:32;1.77;;;1.57;;
25982;SDS011;13773;48.868;10.730;2022-10-16T11:44:19;3.83;;;1.60;;
25982;SDS011;13773;48.868;10.730;2022-10-16T11:49:50;4.70;;;1.50;;
25982;SDS011;13773;48.868;10.730;2022-10-16T11:55:27;5.60;;;2.27;;
25982;SDS011;13773;48.868;10.730;2022-10-16T11:58:00;2.10;;;1.30;;
25982;SDS011;13773;48.868;10.730;2022-10-16T12:00:50;2.10;;;1.43;;
25982;SDS011;13773;48.868;10.730;2022-10-16T12:03:40;2.03;;;1.40;;
25982;SDS011;13773;48.868;10.730;2022-10-16T12:09:27;3.27;;;1.43;;
25982;SDS011;13773;48.868;10.730;2022-10-16T12:11:54;1.40;;;1.30;;
25982;SDS011;13773;48.868;10.730;2022-10-16T12:14:22;1.90;;;1.33;;
25982;SDS011;13773;48.868;10.730;2022-10-16T12:17:03;2.63;;;1.80;;
25982;SDS011;13773;48.868;10.730;2022-10-16T12:22:41;4.07;;;1.20;;
25982;SDS011;13773;48.868;10.730;2022-10-16T12:30:26;4.83;;;1.50;;
25982;SDS011;13773;48.868;10.730;2022-10-16T12:32:55;2.10;;;1.20;;
25982;SDS011;13773;48.868;10.730;2022-10-16T12:35:27;2.87;;;1.30;;
25982;SDS011;13773;48.868;10.730;2022-10-16T12:38:04;2.67;;;1.30;;
25982;SDS011;13773;48.868;10.730;2022-10-16T12:40:33;2.80;;;1.20;;
25982;SDS011;13773;48.868;10.730;2022-10-16T12:43:11;2.10;;;1.23;;
25982;SDS011;13773;48.868;10.730;2022-10-16T12:46:02;3.63;;;1.37;;
25982;SDS011;13773;48.868;10.730;2022-10-16T12:48:31;4.53;;;1.50;;
25982;SDS011;13773;48.868;10.730;2022-10-16T12:50:57;2.00;;;1.30;;
25982;SDS011;13773;48.868;10.730;2022-10-16T12:53:34;2.50;;;1.43;;
25982;SDS011;13773;48.868;10.730;2022-10-16T12:56:20;4.07;;;1.30;;
25982;SDS011;13773;48.868;10.730;2022-10-16T12:58:57;2.03;;;1.20;;
25982;SDS011;13773;48.868;10.730;2022-10-16T13:02:25;2.17;;;1.33;;
25982;SDS011;13773;48.868;10.730;2022-10-16T13:24:17;2.40;;;1.20;;
25982;SDS011;13773;48.868;10.730;2022-10-16T13:29:17;2.07;;;1.20;;
25982;SDS011;13773;48.868;10.730;2022-10-16T13:31:44;3.83;;;1.60;;
25982;SDS011;13773;48.868;10.730;2022-10-16T13:34:12;3.97;;;1.30;;
25982;SDS011;13773;48.868;10.730;2022-10-16T13:36:45;3.33;;;1.20;;
25982;SDS011;13773;48.868;10.730;2022-10-16T13:44:50;4.00;;;1.20;;
25982;SDS011;13773;48.868;10.730;2022-10-16T13:49:58;3.10;;;1.43;;
25982;SDS011;13773;48.868;10.730;2022-10-16T13:52:29;1.77;;;1.40;;
25982;SDS011;13773;48.868;10.730;2022-10-16T13:54:55;2.50;;;1.20;;
25982;SDS011;13773;48.868;10.730;2022-10-16T13:57:22;2.00;;;1.50;;
25982;SDS011;13773;48.868;10.730;2022-10-16T13:59:49;3.90;;;1.37;;
25982;SDS011;13773;48.868;10.730;2022-10-16T14:02:22;1.03;;;1.00;;
25982;SDS011;13773;48.868;10.730;2022-10-16T14:04:51;8.90;;;1.63;;
25982;SDS011;13773;48.868;10.730;2022-10-16T14:07:27;3.43;;;1.50;;
25982;SDS011;13773;48.868;10.730;2022-10-16T14:09:56;3.17;;;1.37;;
25982;SDS011;13773;48.868;10.730;2022-10-16T14:12:26;2.43;;;1.50;;
25982;SDS011;13773;48.868;10.730;2022-10-16T14:14:52;5.13;;;1.20;;
25982;SDS011;13773;48.868;10.730;2022-10-16T14:17:30;4.43;;;1.20;;
25982;SDS011;13773;48.868;10.730;2022-10-16T14:19:59;1.93;;;1.30;;
25982;SDS011;13773;48.868;10.730;2022-10-16T14:24:57;2.30;;;1.40;;
25982;SDS011;13773;48.868;10.730;2022-10-16T14:27:26;2.53;;;1.30;;
25982;SDS011;13773;48.868;10.730;2022-10-16T14:30:03;1.87;;;1.23;;
25982;SDS011;13773;48.868;10.730;2022-10-16T14:32:42;2.47;;;1.40;;
25982;SDS011;13773;48.868;10.730;2022-10-16T14:35:23;2.20;;;1.20;;
25982;SDS011;13773;48.868;10.730;2022-10-16T14:38:18;1.47;;;1.30;;
25982;SDS011;13773;48.868;10.730;2022-10-16T14:40:48;8.03;;;1.63;;
25982;SDS011;13773;48.868;10.730;2022-10-16T14:43:19;6.43;;;1.40;;
25982;SDS011;13773;48.868;10.730;2022-10-16T14:45:51;6.03;;;1.53;;
25982;SDS011;13773;48.868;10.730;2022-10-16T14:48:19;5.27;;;1.47;;
25982;SDS011;13773;48.868;10.730;2022-10-16T14:50:46;6.10;;;1.50;;
25982;SDS011;13773;48.868;10.730;2022-10-16T14:53:12;1.23;;;1.10;;
25982;SDS011;13773;48.868;10.730;2022-10-16T14:55:38;2.87;;;1.50;;
25982;SDS011;13773;48.868;10.730;2022-10-16T14:58:06;5.93;;;1.50;;
25982;SDS011;13773;48.868;10.730;2022-10-16T15:00:46;5.53;;;1.43;;
25982;SDS011;13773;48.868;10.730;2022-10-16T15:03:12;3.30;;;1.40;;
25982;SDS011;13773;48.868;10.730;2022-10-16T15:05:38;1.37;;;1.27;;
25982;SDS011;13773;48.868;10.730;2022-10-16T15:08:04;2.20;;;1.67;;
25982;SDS011;13773;48.868;10.730;2022-10-16T15:10:30;2.57;;;1.33;;
25982;SDS011;13773;48.868;10.730;2022-10-16T15:12:58;1.40;;;1.30;;
25982;SDS011;13773;48.868;10.730;2022-10-16T15:17:58;2.67;;;1.50;;
25982;SDS011;13773;48.868;10.730;2022-10-16T15:20:33;2.50;;;1.40;;
25982;SDS011;13773;48.868;10.730;2022-10-16T15:23:01;2.63;;;1.43;;
25982;SDS011;13773;48.868;10.730;2022-10-16T15:25:36;4.30;;;1.40;;
25982;SDS011;13773;48.868;10.730;2022-10-16T15:28:07;5.77;;;1.47;;
25982;SDS011;13773;48.868;10.730;2022-10-16T15:30:34;5.03;;;1.50;;
25982;SDS011;13773;48.868;10.730;2022-10-16T15:33:00;4.77;;;1.70;;
25982;SDS011;13773;48.868;10.730;2022-10-16T15:35:27;7.57;;;1.67;;
25982;SDS011;13773;48.868;10.730;2022-10-16T15:37:52;7.80;;;1.70;;
25982;SDS011;13773;48.868;10.730;2022-10-16T15:40:19;4.83;;;1.63;;
25982;SDS011;13773;48.868;10.730;2022-10-16T15:42:45;7.10;;;2.07;;
25982;SDS011;13773;48.868;10.730;2022-10-16T15:45:11;6.10;;;1.60;;
25982;SDS011;13773;48.868;10.730;2022-10-16T15:47:38;3.73;;;1.70;;
25982;SDS011;13773;48.868;10.730;2022-10-16T15:50:05;2.90;;;1.60;;
25982;SDS011;13773;48.868;10.730;2022-10-16T15:52:31;4.30;;;1.60;;
25982;SDS011;13773;48.868;10.730;2022-10-16T15:54:57;1.63;;;1.53;;
25982;SDS011;13773;48.868;10.730;2022-10-16T15:57:23;5.60;;;2.23;;
25982;SDS011;13773;48.868;10.730;2022-10-16T15:59:49;5.17;;;1.73;;
25982;SDS011;13773;48.868;10.730;2022-10-16T16:02:16;3.50;;;1.70;;
25982;SDS011;13773;48.868;10.730;2022-10-16T16:04:42;3.10;;;1.97;;
25982;SDS011;13773;48.868;10.730;2022-10-16T16:07:08;2.80;;;1.50;;
25982;SDS011;13773;48.868;10.730;2022-10-16T16:09:34;7.90;;;1.70;;
25982;SDS011;13773;48.868;10.730;2022-10-16T16:11:59;4.10;;;1.70;;
25982;SDS011;13773;48.868;10.730;2022-10-16T16:14:26;3.80;;;1.70;;
25982;SDS011;13773;48.868;10.730;2022-10-16T16:16:55;6.90;;;1.73;;
25982;SDS011;13773;48.868;10.730;2022-10-16T16:19:21;4.93;;;2.07;;
25982;SDS011;13773;48.868;10.730;2022-10-16T16:21:47;6.67;;;1.63;;
25982;SDS011;13773;48.868;10.730;2022-10-16T16:24:13;5.83;;;1.73;;
25982;SDS011;13773;48.868;10.730;2022-10-16T16:26:39;5.43;;;1.70;;
25982;SDS011;13773;48.868;10.730;2022-10-16T16:29:09;3.33;;;1.50;;
25982;SDS011;13773;48.868;10.730;2022-10-16T16:31:38;4.80;;;1.67;;
25982;SDS011;13773;48.868;10.730;2022-10-16T16:34:04;6.13;;;1.80;;
25982;SDS011;13773;48.868;10.730;2022-10-16T16:36:30;4.03;;;1.70;;
25982;SDS011;13773;48.868;10.730;2022-10-16T16:38:56;5.97;;;2.40;;
25982;SDS011;13773;48.868;10.730;2022-10-16T16:41:23;3.40;;;1.73;;
25982;SDS011;13773;48.868;10.730;2022-10-16T16:43:54;3.47;;;1.77;;
25982;SDS011;13773;48.868;10.730;2022-10-16T16:46:25;3.80;;;1.57;;
25982;SDS011;13773;48.868;10.730;2022-10-16T16:48:51;5.63;;;1.83;;
25982;SDS011;13773;48.868;10.730;2022-10-16T16:51:20;6.80;;;1.50;;
25982;SDS011;13773;48.868;10.730;2022-10-16T16:53:47;3.80;;;1.80;;
25982;SDS011;13773;48.868;10.730;2022-10-16T16:56:14;11.27;;;1.90;;
25982;SDS011;13773;48.868;10.730;2022-10-16T16:58:41;4.60;;;2.03;;
25982;SDS011;13773;48.868;10.730;2022-10-16T17:01:10;5.33;;;1.70;;
25982;SDS011;13773;48.868;10.730;2022-10-16T17:03:36;5.47;;;1.80;;
25982;SDS011;13773;48.868;10.730;2022-10-16T17:06:07;2.73;;;1.40;;
25982;SDS011;13773;48.868;10.730;2022-10-16T17:08:34;8.40;;;1.67;;
25982;SDS011;13773;48.868;10.730;2022-10-16T17:11:00;5.07;;;2.00;;
25982;SDS011;13773;48.868;10.730;2022-10-16T17:13:27;5.33;;;2.10;;
25982;SDS011;13773;48.868;10.730;2022-10-16T17:15:55;8.27;;;1.60;;
25982;SDS011;13773;48.868;10.730;2022-10-16T17:18:22;5.60;;;1.70;;